Time;durP1;ratioP1;P1;durP2;ratioP2;P2;SDS_P1;SDS_P2;PMS_P1;PMS_P2;Temp;Humidity;BMP_temperature;BMP_pressure;BME280_temperature;BME280_humidity;BME280_pressure;Samples;Min_cycle;Max_cycle;Signal;HPM_P1;HPM_P2
2024/03/12 00:01:19;;;;;;;45.70;24.40;;;9.70;80.10;;;;;;9177468;19;20523;-63
2024/03/12 00:04:28;;;;;;;50.88;24.95;;;9.70;80.10;;;;;;9175661;19;20018;-64
2024/03/12 00:07:35;;;;;;;56.17;26.10;;;9.70;80.10;;;;;;9176595;19;20452;-64
2024/03/12 00:10:41;;;;;;;46.03;24.60;;;9.70;80.10;;;;;;9177404;19;20463;-64
2024/03/12 00:13:49;;;;;;;48.17;25.83;;;9.70;80.10;;;;;;9177216;19;20022;-64
2024/03/12 00:16:56;;;;;;;50.50;26.20;;;9.70;80.10;;;;;;9176250;19;20046;-64
2024/03/12 00:20:16;;;;;;;49.97;26.42;;;9.70;80.20;;;;;;9176924;19;20041;-65
2024/03/12 00:23:22;;;;;;;51.20;26.13;;;9.70;80.30;;;;;;9175233;19;21149;-66
2024/03/12 00:26:31;;;;;;;54.17;26.90;;;9.70;80.20;;;;;;9175946;19;20772;-64
2024/03/12 00:29:36;;;;;;;56.05;28.98;;;9.70;80.20;;;;;;9174867;19;20026;-66
2024/03/12 00:32:44;;;;;;;48.85;25.73;;;9.70;80.20;;;;;;9176963;19;20109;-65
2024/03/12 00:35:52;;;;;;;50.55;26.20;;;9.70;80.20;;;;;;9175995;19;20086;-63
2024/03/12 00:39:02;;;;;;;56.97;26.15;;;9.70;80.30;;;;;;9173990;19;20228;-65
2024/03/12 00:42:09;;;;;;;58.38;28.48;;;9.70;80.30;;;;;;9175283;19;20031;-66
2024/03/12 00:45:25;;;;;;;55.45;28.15;;;9.60;80.20;;;;;;9176594;19;20026;-65
2024/03/12 00:48:30;;;;;;;;;;;9.70;80.30;;;;;;9176559;19;20085;-64
2024/03/12 00:51:41;;;;;;;56.15;26.10;;;9.70;80.30;;;;;;9175471;19;19926;-65
2024/03/12 00:54:50;;;;;;;52.35;26.65;;;9.60;80.20;;;;;;9175507;19;20082;-65
2024/03/12 00:57:58;;;;;;;64.63;28.33;;;9.60;80.30;;;;;;9170527;19;20019;-65
2024/03/12 01:01:06;;;;;;;58.85;28.52;;;9.60;80.30;;;;;;9173220;19;20026;-63
2024/03/12 01:04:16;;;;;;;63.95;27.65;;;9.60;80.30;;;;;;9173550;19;20018;-65
2024/03/12 01:07:25;;;;;;;72.68;29.83;;;9.60;80.30;;;;;;9174691;19;20374;-65
2024/03/12 01:10:34;;;;;;;61.03;26.83;;;9.60;80.40;;;;;;9175787;19;20022;-64
2024/03/12 01:13:40;;;;;;;62.53;29.70;;;9.60;80.40;;;;;;9175482;19;20109;-64
2024/03/12 01:16:47;;;;;;;68.70;29.35;;;9.60;80.40;;;;;;9174709;19;20125;-64
2024/03/12 01:19:54;;;;;;;68.32;30.55;;;9.60;80.40;;;;;;9174789;19;20475;-66
2024/03/12 01:23:05;;;;;;;66.95;29.98;;;9.60;80.50;;;;;;9173492;19;20539;-64
2024/03/12 01:26:12;;;;;;;65.93;29.95;;;9.60;80.50;;;;;;9174778;19;20015;-65
2024/03/12 01:29:22;;;;;;;74.43;30.17;;;9.60;80.50;;;;;;9173399;19;20045;-64
2024/03/12 01:32:27;;;;;;;71.78;31.80;;;9.60;80.60;;;;;;9174221;19;20760;-67
2024/03/12 01:35:37;;;;;;;75.22;32.63;;;9.60;80.60;;;;;;9174591;19;20023;-63
2024/03/12 01:38:48;;;;;;;69.90;29.92;;;9.60;80.60;;;;;;9171438;19;20014;-64
2024/03/12 01:41:56;;;;;;;66.45;29.00;;;9.60;80.60;;;;;;9173498;19;20057;-67
2024/03/12 01:45:02;;;;;;;64.20;27.88;;;9.60;80.60;;;;;;9173985;19;20583;-64
2024/03/12 01:48:11;;;;;;;64.97;28.15;;;9.60;80.70;;;;;;9173486;19;20015;-66
2024/03/12 01:51:18;;;;;;;67.93;29.67;;;9.60;80.70;;;;;;9172479;19;20021;-64
2024/03/12 01:54:28;;;;;;;57.90;28.27;;;9.60;80.70;;;;;;9173800;19;20019;-65
2024/03/12 01:57:35;;;;;;;67.20;31.08;;;9.50;80.70;;;;;;9166530;19;20014;-65
2024/03/12 02:00:43;;;;;;;66.93;29.38;;;9.50;80.80;;;;;;9181811;19;20018;-65
2024/03/12 02:03:51;;;;;;;68.57;28.13;;;9.60;80.80;;;;;;9180791;19;20009;-65
2024/03/12 02:06:59;;;;;;;61.80;28.58;;;9.50;80.70;;;;;;9182170;19;20020;-65
2024/03/12 02:10:09;;;;;;;64.50;29.63;;;9.50;80.70;;;;;;9182867;19;20017;-65
2024/03/12 02:13:17;;;;;;;63.25;28.42;;;9.50;80.80;;;;;;9182338;19;20017;-66
2024/03/12 02:16:23;;;;;;;58.22;28.65;;;9.50;80.90;;;;;;9181775;19;20021;-64
2024/03/12 02:19:31;;;;;;;63.65;29.50;;;9.50;80.90;;;;;;9181891;19;20483;-63
2024/03/12 02:22:36;;;;;;;63.13;30.17;;;9.50;80.90;;;;;;9179530;19;20011;-66
2024/03/12 02:25:46;;;;;;;71.43;28.77;;;9.50;80.90;;;;;;9181745;19;20018;-64
2024/03/12 02:28:52;;;;;;;68.53;29.85;;;9.50;80.90;;;;;;9179485;19;20018;-64
2024/03/12 02:31:59;;;;;;;74.45;32.05;;;9.50;81.50;;;;;;9181288;19;20018;-65
2024/03/12 02:35:05;;;;;;;72.55;28.63;;;9.50;80.90;;;;;;9180721;19;20475;-65
2024/03/12 02:38:12;;;;;;;61.60;28.45;;;9.50;81.00;;;;;;9178817;19;20019;-65
2024/03/12 02:41:22;;;;;;;64.63;29.15;;;9.40;80.90;;;;;;9181291;19;20364;-65
2024/03/12 02:44:50;;;;;;;67.72;30.10;;;9.40;81.00;;;;;;9178132;19;20442;-66
2024/03/12 02:47:55;;;;;;;75.57;30.92;;;9.50;81.00;;;;;;9180116;19;20638;-67
2024/03/12 02:51:03;;;;;;;64.53;28.23;;;9.40;81.00;;;;;;9181147;19;20019;-65
2024/03/12 02:54:09;;;;;;;65.45;30.05;;;9.40;81.00;;;;;;9177326;19;20025;-64
2024/03/12 02:57:21;;;;;;;69.55;29.77;;;9.40;81.10;;;;;;9176073;19;20011;-66
2024/03/12 03:00:28;;;;;;;68.93;29.48;;;9.40;81.20;;;;;;9180296;19;20018;-66
2024/03/12 03:03:36;;;;;;;71.85;29.33;;;9.40;81.20;;;;;;9178241;19;20048;-65
2024/03/12 03:06:42;;;;;;;68.75;30.08;;;9.40;81.20;;;;;;9179639;19;20018;-64
2024/03/12 03:09:49;;;;;;;64.97;30.00;;;9.40;81.20;;;;;;9180619;19;20026;-65
2024/03/12 03:12:57;;;;;;;83.63;35.70;;;9.40;81.20;;;;;;9179561;19;20622;-65
2024/03/12 03:16:06;;;;;;;79.47;35.08;;;9.40;81.30;;;;;;9178704;19;20093;-65
2024/03/12 03:19:12;;;;;;;68.38;30.35;;;9.30;81.20;;;;;;9180194;19;20029;-65
2024/03/12 03:22:19;;;;;;;64.68;29.70;;;9.30;81.20;;;;;;9179205;19;20026;-65
2024/03/12 03:25:25;;;;;;;68.32;30.73;;;9.30;81.30;;;;;;9176233;19;20422;-64
2024/03/12 03:28:35;;;;;;;66.00;30.08;;;9.30;81.30;;;;;;9178039;19;20564;-64
2024/03/12 03:31:43;;;;;;;67.68;29.33;;;9.30;81.40;;;;;;9178886;19;20021;-64
2024/03/12 03:34:51;;;;;;;63.17;28.80;;;9.30;81.40;;;;;;9177995;19;20033;-65
2024/03/12 03:37:59;;;;;;;60.10;27.50;;;9.30;81.40;;;;;;9176924;19;20011;-65
2024/03/12 03:41:06;;;;;;;63.50;29.92;;;9.30;81.40;;;;;;9178318;19;20018;-64
2024/03/12 03:44:14;;;;;;;60.50;28.83;;;9.40;81.50;;;;;;9177678;19;20051;-65
2024/03/12 03:47:22;;;;;;;61.75;28.35;;;9.30;81.40;;;;;;9177712;19;20018;-65
2024/03/12 03:50:28;;;;;;;68.18;29.80;;;9.30;81.40;;;;;;9176174;19;20018;-65
2024/03/12 03:53:35;;;;;;;65.25;30.08;;;9.30;81.40;;;;;;9176992;19;20023;-65
2024/03/12 03:56:42;;;;;;;63.83;29.15;;;9.30;81.50;;;;;;9172792;19;20007;-65
2024/03/12 03:59:52;;;;;;;68.40;30.63;;;9.30;81.50;;;;;;9177680;19;20026;-65
2024/03/12 04:02:58;;;;;;;65.07;29.45;;;9.30;81.60;;;;;;9177447;19;20043;-64
2024/03/12 04:06:09;;;;;;;66.63;29.98;;;9.30;81.60;;;;;;9173393;19;20010;-65
2024/03/12 04:09:15;;;;;;;67.88;29.05;;;9.30;81.60;;;;;;9176885;19;20464;-65
2024/03/12 04:12:22;;;;;;;71.22;29.42;;;9.40;81.60;;;;;;9177292;19;20022;-65
2024/03/12 04:15:33;;;;;;;71.57;30.38;;;9.30;81.60;;;;;;9176209;19;20862;-65
2024/03/12 04:18:43;;;;;;;68.07;30.25;;;9.40;81.70;;;;;;9177522;19;20590;-64
2024/03/12 04:21:49;;;;;;;65.50;29.05;;;9.30;81.60;;;;;;9176578;19;20030;-65
2024/03/12 04:24:56;;;;;;;74.78;31.20;;;9.40;81.60;;;;;;9174657;19;20015;-65
2024/03/12 04:28:02;;;;;;;71.60;31.45;;;9.40;81.70;;;;;;9175932;19;20014;-65
2024/03/12 04:31:12;;;;;;;63.70;29.67;;;9.40;81.70;;;;;;9176906;19;20014;-65
2024/03/12 04:34:20;;;;;;;71.35;30.98;;;9.40;81.70;;;;;;9176156;19;20014;-65
2024/03/12 04:37:31;;;;;;;64.30;30.20;;;9.40;81.70;;;;;;9174716;19;20027;-65
2024/03/12 04:40:37;;;;;;;66.05;30.67;;;9.30;81.70;;;;;;9175126;19;20015;-65
2024/03/12 04:43:44;;;;;;;67.93;30.40;;;9.40;81.70;;;;;;9176037;19;20018;-65
2024/03/12 04:46:52;;;;;;;65.72;31.67;;;9.40;81.70;;;;;;9173043;19;20026;-64
2024/03/12 04:50:00;;;;;;;62.97;31.35;;;9.40;81.70;;;;;;9175550;19;20025;-64
2024/03/12 04:53:07;;;;;;;63.55;30.30;;;9.40;81.70;;;;;;9174023;19;20053;-65
2024/03/12 04:56:16;;;;;;;73.40;31.33;;;9.40;81.80;;;;;;9170431;19;20475;-65
2024/03/12 04:59:22;;;;;;;76.95;32.78;;;9.40;81.70;;;;;;9175219;19;20021;-65
2024/03/12 05:02:32;;;;;;;83.93;33.97;;;9.40;81.70;;;;;;9173448;19;20023;-65
2024/03/12 05:05:37;;;;;;;80.32;33.05;;;9.40;81.80;;;;;;9170568;19;20081;-64
2024/03/12 05:08:45;;;;;;;85.93;34.05;;;9.40;81.70;;;;;;9174156;19;20029;-65
2024/03/12 05:11:50;;;;;;;81.22;34.97;;;9.40;81.70;;;;;;9174203;19;20497;-67
2024/03/12 05:14:58;;;;;;;95.50;34.75;;;9.40;81.80;;;;;;9174405;19;20025;-67
2024/03/12 05:18:07;;;;;;;95.43;35.38;;;9.40;81.80;;;;;;9174362;19;20014;-64
2024/03/12 05:21:15;;;;;;;95.18;37.30;;;9.40;81.90;;;;;;9174687;19;20022;-67
2024/03/12 05:24:21;;;;;;;92.78;35.78;;;9.40;81.80;;;;;;9174533;19;20056;-64
2024/03/12 05:27:35;;;;;;;103.82;37.78;;;9.40;81.80;;;;;;9172166;19;20025;-65
2024/03/12 05:30:42;;;;;;;100.05;37.03;;;9.40;81.80;;;;;;9174429;19;20081;-64
2024/03/12 05:33:53;;;;;;;108.43;40.45;;;9.40;81.80;;;;;;9176845;19;20023;-64
2024/03/12 05:37:04;;;;;;;107.03;40.90;;;9.40;81.90;;;;;;9181840;19;20026;-65
2024/03/12 05:40:17;;;;;;;105.22;39.78;;;9.40;81.80;;;;;;9183905;19;20926;-64
2024/03/12 05:50:16;;;;;;;109.32;41.67;;;9.30;81.90;;;;;;9180462;19;20018;-65
2024/03/12 05:53:24;;;;;;;117.68;41.58;;;9.30;81.90;;;;;;9182146;19;20049;-65
2024/03/12 05:56:30;;;;;;;131.13;44.33;;;9.30;81.90;;;;;;9178895;19;21391;-65
2024/03/12 05:59:37;;;;;;;122.82;41.38;;;9.30;82.00;;;;;;9180169;19;20285;-65
2024/03/12 06:02:43;;;;;;;122.30;43.33;;;9.30;82.00;;;;;;9183333;19;20349;-65
2024/03/12 06:05:53;;;;;;;110.20;39.95;;;9.30;82.00;;;;;;9180666;19;20015;-66
2024/03/12 06:08:59;;;;;;;118.22;42.05;;;9.30;82.10;;;;;;9180530;19;20054;-65
2024/03/12 06:12:23;;;;;;;107.85;41.53;;;9.30;82.20;;;;;;9181012;19;20148;-66
2024/03/12 06:15:49;;;;;;;112.18;42.55;;;9.30;82.10;;;;;;9181470;19;20022;-65
2024/03/12 06:18:57;;;;;;;116.57;42.00;;;9.30;82.10;;;;;;9180575;19;20018;-66
2024/03/12 06:22:05;;;;;;;112.97;42.65;;;9.30;82.10;;;;;;9180522;19;20508;-65
2024/03/12 06:25:13;;;;;;;110.68;40.63;;;9.30;82.20;;;;;;9178818;19;20011;-65
2024/03/12 06:28:21;;;;;;;117.30;40.17;;;9.30;82.20;;;;;;9180678;19;20029;-65
2024/03/12 06:31:29;;;;;;;100.07;38.47;;;9.30;82.20;;;;;;9180110;19;20364;-66
2024/03/12 06:34:35;;;;;;;103.25;40.38;;;9.30;82.20;;;;;;9178962;19;20364;-65
2024/03/12 06:37:45;;;;;;;110.15;39.65;;;9.30;82.30;;;;;;9179366;19;20507;-65
2024/03/12 06:40:50;;;;;;;124.80;41.90;;;9.30;82.20;;;;;;9180952;19;20029;-64
2024/03/12 06:43:58;;;;;;;120.50;41.70;;;9.40;82.30;;;;;;9180577;19;20014;-64
2024/03/12 06:47:05;;;;;;;99.05;41.03;;;9.30;82.20;;;;;;9178219;19;20078;-64
2024/03/12 06:50:14;;;;;;;106.32;38.67;;;9.30;82.20;;;;;;9181177;19;20028;-65
2024/03/12 06:53:25;;;;;;;107.55;38.08;;;9.40;82.30;;;;;;9180979;19;20419;-65
2024/03/12 06:56:39;;;;;;;105.28;39.83;;;9.40;82.30;;;;;;9176682;19;20397;-64
2024/03/12 06:59:47;;;;;;;108.50;40.05;;;9.40;82.30;;;;;;9180670;19;20077;-65
2024/03/12 07:02:57;;;;;;;101.13;39.10;;;9.40;82.30;;;;;;9178376;19;20021;-65
2024/03/12 07:06:03;;;;;;;92.70;35.17;;;9.40;82.40;;;;;;9177438;19;20017;-64
2024/03/12 07:09:22;;;;;;;79.47;33.83;;;9.40;82.40;;;;;;9178971;19;20778;-65
2024/03/12 07:12:28;;;;;;;78.90;36.00;;;9.40;82.40;;;;;;9179212;19;20432;-64
2024/03/12 07:15:38;;;;;;;86.35;35.35;;;9.40;82.40;;;;;;9177535;19;20019;-64
2024/03/12 07:18:46;;;;;;;81.32;34.58;;;9.40;82.40;;;;;;9180527;19;20110;-65
2024/03/12 07:21:54;;;;;;;78.20;34.78;;;9.40;82.40;;;;;;9179380;19;20752;-64
2024/03/12 07:25:03;;;;;;;77.85;32.90;;;9.40;82.50;;;;;;9179306;19;20039;-64
2024/03/12 07:28:12;;;;;;;76.75;32.38;;;9.40;82.50;;;;;;9179609;19;20014;-64
2024/03/12 07:31:19;;;;;;;73.38;33.20;;;9.40;82.50;;;;;;9179227;19;20086;-65
2024/03/12 07:34:27;;;;;;;78.47;33.38;;;9.40;82.50;;;;;;9176803;19;20026;-65
2024/03/12 07:37:36;;;;;;;72.03;30.85;;;9.40;82.60;;;;;;9177009;19;20438;-64
2024/03/12 07:40:46;;;;;;;70.22;29.63;;;9.40;82.60;;;;;;9178379;19;20018;-66
2024/03/12 07:43:52;;;;;;;68.90;29.77;;;9.40;82.60;;;;;;9178205;19;20010;-64
2024/03/12 07:46:59;;;;;;;60.55;27.73;;;9.40;82.70;;;;;;9175905;19;20018;-64
2024/03/12 07:50:05;;;;;;;57.72;25.75;;;9.40;82.60;;;;;;9177728;19;20014;-65
2024/03/12 07:53:12;;;;;;;51.15;24.20;;;9.40;82.70;;;;;;9178196;19;20014;-64
2024/03/12 07:56:23;;;;;;;53.95;23.88;;;9.40;82.60;;;;;;9171460;19;20122;-64
2024/03/12 07:59:31;;;;;;;47.63;21.48;;;9.40;82.70;;;;;;9177182;19;20471;-65
2024/03/12 08:02:39;;;;;;;37.85;18.85;;;9.40;82.70;;;;;;9178428;19;20022;-65
2024/03/12 08:05:47;;;;;;;41.90;19.98;;;9.40;82.70;;;;;;9177589;19;20610;-65
2024/03/12 08:08:53;;;;;;;36.85;19.45;;;9.40;82.90;;;;;;9177555;19;20060;-66
2024/03/12 08:12:03;;;;;;;33.97;16.98;;;9.40;82.80;;;;;;9177052;19;20015;-66
2024/03/12 08:15:13;;;;;;;33.72;17.27;;;9.40;82.90;;;;;;9177646;19;20059;-66
2024/03/12 08:18:21;;;;;;;34.10;17.67;;;9.40;82.90;;;;;;9177662;19;20011;-65
2024/03/12 08:21:27;;;;;;;36.60;17.90;;;9.40;82.90;;;;;;9176590;19;20050;-65
2024/03/12 08:24:35;;;;;;;28.65;15.45;;;9.40;82.90;;;;;;9177022;19;20452;-66
2024/03/12 08:27:43;;;;;;;33.92;16.00;;;9.50;83.00;;;;;;9175288;19;20022;-66
2024/03/12 08:30:51;;;;;;;28.67;15.65;;;9.50;83.00;;;;;;9174662;19;20014;-66
2024/03/12 08:33:58;;;;;;;26.30;13.82;;;9.50;82.90;;;;;;9176646;19;20051;-66
2024/03/12 08:37:09;;;;;;;32.97;15.48;;;9.40;82.90;;;;;;9176231;19;20841;-66
2024/03/12 08:40:15;;;;;;;37.47;15.10;;;9.50;83.00;;;;;;9176669;19;20022;-68
2024/03/12 08:43:26;;;;;;;36.40;16.35;;;9.50;83.00;;;;;;9176100;19;20025;-65
2024/03/12 08:46:32;;;;;;;36.67;16.13;;;9.50;83.00;;;;;;9175439;19;20040;-66
2024/03/12 08:49:40;;;;;;;36.60;16.27;;;9.50;83.00;;;;;;9176010;19;20610;-65
2024/03/12 08:52:46;;;;;;;36.38;15.02;;;9.50;83.00;;;;;;9174445;19;20014;-65
2024/03/12 08:55:54;;;;;;;45.17;16.92;;;9.50;83.00;;;;;;9176125;19;20018;-67
2024/03/12 08:59:02;;;;;;;39.45;15.88;;;9.50;83.00;;;;;;9171446;19;20650;-66
2024/03/12 09:02:10;;;;;;;35.13;15.40;;;9.50;83.10;;;;;;9169226;19;20511;-64
2024/03/12 09:05:17;;;;;;;38.20;16.52;;;9.50;83.10;;;;;;9175161;19;20018;-66
2024/03/12 09:08:24;;;;;;;44.75;17.52;;;9.50;83.00;;;;;;9173838;19;20033;-65
2024/03/12 09:11:30;;;;;;;41.80;16.70;;;9.50;83.00;;;;;;9175622;19;20019;-65
2024/03/12 09:14:40;;;;;;;37.33;16.10;;;9.50;83.10;;;;;;9174465;19;20014;-64
2024/03/12 09:17:47;;;;;;;36.63;15.10;;;9.50;83.10;;;;;;9176014;19;20624;-65
2024/03/12 09:20:54;;;;;;;38.53;15.48;;;9.60;83.10;;;;;;9174627;19;20014;-67
2024/03/12 09:24:01;;;;;;;40.00;14.50;;;9.50;83.10;;;;;;9173076;19;20019;-64
2024/03/12 09:27:10;;;;;;;32.47;13.85;;;9.60;83.20;;;;;;9173082;19;20014;-65
2024/03/12 09:30:19;;;;;;;37.03;13.55;;;9.60;83.10;;;;;;9174462;19;20123;-65
2024/03/12 09:33:27;;;;;;;33.15;12.45;;;9.60;83.20;;;;;;9175006;19;20364;-66
2024/03/12 09:36:33;;;;;;;28.40;12.27;;;9.60;83.20;;;;;;9174454;19;20015;-66
2024/03/12 09:39:44;;;;;;;33.75;12.30;;;9.60;83.10;;;;;;9174513;19;20026;-66
2024/03/12 09:42:52;;;;;;;28.30;11.90;;;9.60;83.10;;;;;;9172595;19;20015;-67
2024/03/12 09:46:03;;;;;;;28.83;11.93;;;9.60;83.10;;;;;;9173008;19;20014;-66
2024/03/12 09:49:13;;;;;;;28.38;11.68;;;9.60;83.10;;;;;;9169574;19;20482;-66
2024/03/12 09:52:20;;;;;;;31.40;11.77;;;9.60;83.10;;;;;;9171683;19;20381;-66
2024/03/12 09:55:26;;;;;;;31.50;13.18;;;9.60;83.00;;;;;;9171984;19;20360;-66
2024/03/12 09:58:34;;;;;;;32.60;13.85;;;9.60;83.10;;;;;;9167800;19;20368;-66
2024/03/12 10:01:42;;;;;;;31.75;12.93;;;9.60;83.10;;;;;;9173736;19;20011;-66
2024/03/12 10:04:51;;;;;;;28.38;12.98;;;9.60;83.10;;;;;;9173549;19;20021;-66
2024/03/12 10:08:12;;;;;;;37.42;14.77;;;9.60;83.10;;;;;;9172427;19;20047;-66
2024/03/12 10:11:23;;;;;;;39.33;15.05;;;9.60;83.10;;;;;;9171776;19;20018;-66
2024/03/12 10:14:29;;;;;;;41.45;15.38;;;9.60;83.00;;;;;;9169588;19;20077;-66
2024/03/12 10:17:40;;;;;;;35.28;14.55;;;9.60;83.10;;;;;;9165474;19;20712;-66
2024/03/12 10:20:48;;;;;;;37.53;14.98;;;9.60;83.20;;;;;;9178362;19;20026;-70
2024/03/12 10:24:13;;;;;;;48.88;15.80;;;9.50;83.10;;;;;;9177668;19;20019;-69
2024/03/12 10:27:20;;;;;;;35.75;16.02;;;9.60;83.30;;;;;;9181439;19;20664;-69
2024/03/12 10:30:28;;;;;;;38.00;16.30;;;9.50;83.20;;;;;;9181340;19;20511;-69
2024/03/12 10:33:36;;;;;;;39.53;15.82;;;9.50;83.10;;;;;;9181461;19;20367;-68
2024/03/12 10:36:45;;;;;;;38.72;14.35;;;9.60;83.20;;;;;;9180938;19;20025;-69
2024/03/12 10:39:51;;;;;;;39.80;14.88;;;9.60;83.30;;;;;;9180820;19;20017;-69
2024/03/12 10:43:01;;;;;;;41.13;14.98;;;9.60;83.20;;;;;;9181874;19;20018;-69
2024/03/12 10:46:10;;;;;;;36.90;14.13;;;9.60;83.20;;;;;;9178611;19;20025;-69
2024/03/12 10:49:22;;;;;;;44.35;15.98;;;9.60;83.20;;;;;;9177604;19;20025;-68
2024/03/12 10:52:34;;;;;;;42.53;16.27;;;9.60;83.20;;;;;;9180339;19;20047;-69
2024/03/12 10:55:41;;;;;;;41.67;15.93;;;9.60;83.10;;;;;;9180965;19;20025;-68
2024/03/12 10:58:49;;;;;;;52.90;17.75;;;9.60;83.20;;;;;;9176409;19;20010;-68
2024/03/12 11:01:58;;;;;;;49.15;16.52;;;9.60;83.30;;;;;;9178135;19;20376;-69
2024/03/12 11:05:07;;;;;;;42.00;14.82;;;9.70;83.40;;;;;;9180487;19;20082;-68
2024/03/12 11:08:16;;;;;;;49.85;15.40;;;9.70;84.00;;;;;;9177235;19;20030;-68
2024/03/12 11:11:23;;;;;;;50.10;18.95;;;9.70;83.40;;;;;;9178883;19;20018;-68
2024/03/12 11:14:31;;;;;;;43.78;16.35;;;9.70;83.40;;;;;;9179249;19;20018;-69
2024/03/12 11:17:37;;;;;;;43.10;16.70;;;9.70;83.40;;;;;;9177106;19;20018;-68
2024/03/12 11:20:48;;;;;;;42.03;16.13;;;9.80;83.40;;;;;;9174501;19;20014;-68
2024/03/12 11:23:57;;;;;;;42.60;15.88;;;9.80;83.40;;;;;;9178750;19;20533;-69
2024/03/12 11:27:06;;;;;;;35.55;15.32;;;9.80;84.00;;;;;;9177416;19;20022;-68
2024/03/12 11:30:18;;;;;;;45.58;16.95;;;9.80;83.30;;;;;;9176456;19;20039;-68
2024/03/12 11:33:49;;;;;;;42.33;15.57;;;9.80;83.30;;;;;;9178962;19;20029;-68
2024/03/12 11:37:17;;;;;;;43.55;15.52;;;9.80;83.20;;;;;;9176688;19;20031;-68
2024/03/12 11:40:28;;;;;;;46.53;16.75;;;9.80;83.20;;;;;;9179291;19;20018;-68
2024/03/12 11:43:39;;;;;;;35.35;14.10;;;9.70;83.10;;;;;;9178490;19;20086;-67
2024/03/12 11:46:48;;;;;;;37.95;15.93;;;9.70;83.20;;;;;;9177617;19;20015;-68
2024/03/12 11:49:53;;;;;;;44.58;16.05;;;9.70;83.10;;;;;;9175971;19;20019;-67
2024/03/12 11:53:20;;;;;;;40.92;14.20;;;9.70;83.20;;;;;;9178359;19;20029;-68
2024/03/12 11:56:28;;;;;;;55.70;16.17;;;9.70;83.30;;;;;;9174080;19;20014;-67
2024/03/12 11:59:35;;;;;;;36.60;14.88;;;9.70;83.20;;;;;;9177231;19;20029;-68
2024/03/12 12:02:45;;;;;;;35.80;15.15;;;9.70;83.30;;;;;;9178081;19;20379;-67
2024/03/12 12:05:54;;;;;;;41.75;14.70;;;9.70;83.30;;;;;;9175692;19;20114;-66
2024/03/12 12:09:05;;;;;;;38.75;13.15;;;9.80;83.30;;;;;;9175353;19;20026;-66
2024/03/12 12:12:14;;;;;;;31.08;12.38;;;9.70;83.30;;;;;;9177860;19;20475;-66
2024/03/12 12:15:19;;;;;;;25.67;10.82;;;9.80;83.30;;;;;;9176047;19;20034;-66
2024/03/12 12:18:27;;;;;;;27.85;11.93;;;9.70;83.30;;;;;;9177643;19;20033;-68
2024/03/12 12:21:33;;;;;;;27.75;11.27;;;9.70;83.30;;;;;;9175017;19;20026;-69
2024/03/12 12:24:44;;;;;;;24.63;11.27;;;9.70;83.30;;;;;;9176550;19;20022;-67
2024/03/12 12:27:50;;;;;;;31.70;12.45;;;9.70;83.40;;;;;;9172675;19;20025;-67
2024/03/12 12:31:02;;;;;;;32.47;12.75;;;9.70;83.40;;;;;;9174163;19;20018;-66
2024/03/12 12:34:09;;;;;;;28.92;12.02;;;9.70;83.40;;;;;;9173849;19;20042;-67
2024/03/12 12:37:21;;;;;;;28.20;12.48;;;9.70;83.40;;;;;;9175252;19;20021;-66
2024/03/12 12:40:30;;;;;;;30.13;11.77;;;9.70;83.40;;;;;;9175821;19;20086;-67
2024/03/12 12:43:39;;;;;;;29.75;12.70;;;9.70;83.40;;;;;;9175364;19;20030;-67
2024/03/12 12:46:45;;;;;;;29.65;12.40;;;9.70;83.50;;;;;;9176231;19;20010;-66
2024/03/12 12:49:58;;;;;;;29.65;13.50;;;9.80;83.50;;;;;;9173759;19;20025;-67
2024/03/12 12:53:05;;;;;;;28.88;13.25;;;9.80;83.50;;;;;;9175837;19;20048;-67
2024/03/12 12:56:21;;;;;;;36.95;13.50;;;9.80;83.50;;;;;;9172639;19;20033;-68
2024/03/12 12:59:34;;;;;;;;;;;9.80;83.60;;;;;;9176685;19;20487;-67
2024/03/12 13:02:43;;;;;;;33.30;14.05;;;9.90;83.50;;;;;;9175313;19;19929;-67
2024/03/12 13:05:50;;;;;;;28.88;12.27;;;9.90;83.40;;;;;;9175051;19;20006;-67
2024/03/12 13:08:58;;;;;;;32.72;14.32;;;9.90;83.50;;;;;;9174841;19;20010;-67
2024/03/12 13:12:08;;;;;;;42.25;16.30;;;10.00;83.50;;;;;;9174136;19;20018;-67
2024/03/12 13:15:25;;;;;;;40.05;17.77;;;10.00;83.50;;;;;;9174225;19;20015;-67
2024/03/12 13:18:32;;;;;;;41.55;16.63;;;10.00;83.40;;;;;;9175173;19;20353;-68
2024/03/12 13:21:39;;;;;;;39.05;18.67;;;10.00;83.40;;;;;;9174932;19;20095;-67
2024/03/12 13:24:46;;;;;;;43.03;19.38;;;10.00;84.00;;;;;;9174113;19;20015;-68
2024/03/12 13:27:56;;;;;;;47.60;18.67;;;10.00;83.40;;;;;;9174017;19;20488;-68
2024/03/12 13:31:04;;;;;;;44.88;19.17;;;10.00;84.00;;;;;;9171662;19;20022;-67
2024/03/12 13:34:12;;;;;;;40.75;19.33;;;10.00;83.30;;;;;;9174198;19;20019;-68
2024/03/12 13:37:18;;;;;;;43.95;20.25;;;10.00;83.30;;;;;;9174095;19;20018;-67
2024/03/12 13:40:26;;;;;;;41.58;19.25;;;10.00;83.30;;;;;;9173942;19;20832;-67
2024/03/12 13:43:35;;;;;;;39.58;19.52;;;10.00;83.20;;;;;;9174445;19;20064;-67
2024/03/12 13:46:42;;;;;;;36.53;18.98;;;10.00;83.30;;;;;;9174236;19;20021;-68
2024/03/12 13:49:49;;;;;;;45.15;19.92;;;10.00;83.30;;;;;;9173183;19;20011;-67
2024/03/12 13:52:56;;;;;;;44.72;19.15;;;10.00;83.20;;;;;;9174055;19;20011;-68
2024/03/12 13:56:03;;;;;;;45.50;20.20;;;10.00;83.20;;;;;;9179013;19;20462;-67
2024/03/12 13:59:16;;;;;;;35.72;17.85;;;10.10;83.30;;;;;;9181551;19;20011;-67
2024/03/12 14:02:23;;;;;;;46.70;19.98;;;10.10;83.40;;;;;;9182665;19;20221;-67
2024/03/12 14:05:31;;;;;;;46.40;19.65;;;10.10;83.30;;;;;;9182157;19;20011;-67
2024/03/12 14:08:36;;;;;;;42.25;20.23;;;10.10;83.30;;;;;;9179598;19;20050;-67
2024/03/12 14:11:44;;;;;;;38.25;19.38;;;10.10;83.20;;;;;;9177006;19;20353;-67
2024/03/12 14:14:52;;;;;;;39.13;19.42;;;10.10;83.80;;;;;;9179985;19;20089;-68
2024/03/12 14:18:00;;;;;;;41.85;18.05;;;10.20;83.80;;;;;;9180992;19;20919;-68
2024/03/12 14:21:06;;;;;;;53.85;19.98;;;10.10;83.10;;;;;;9181952;19;20014;-67
2024/03/12 14:24:13;;;;;;;45.78;20.65;;;10.20;83.20;;;;;;9181678;19;20022;-67
2024/03/12 14:27:19;;;;;;;56.78;22.48;;;10.20;83.10;;;;;;9181324;19;20602;-66
2024/03/12 14:30:29;;;;;;;60.40;21.95;;;10.20;83.10;;;;;;9180368;19;20025;-70
2024/03/12 14:33:35;;;;;;;45.60;18.98;;;10.20;83.10;;;;;;9181776;19;20015;-66
2024/03/12 14:36:43;;;;;;;43.03;19.27;;;10.30;83.10;;;;;;9180987;19;20520;-67
2024/03/12 14:39:49;;;;;;;43.97;20.27;;;10.20;83.10;;;;;;9181337;19;20029;-66
2024/03/12 14:42:57;;;;;;;50.22;23.50;;;10.30;83.10;;;;;;9180932;19;20029;-66
2024/03/12 14:46:06;;;;;;;45.70;21.92;;;10.30;83.10;;;;;;9180532;19;20456;-66
2024/03/12 14:49:15;;;;;;;45.33;19.45;;;10.30;83.00;;;;;;9180694;19;20025;-67
2024/03/12 14:52:21;;;;;;;36.75;17.52;;;10.40;83.20;;;;;;9180420;19;20017;-67
2024/03/12 14:55:28;;;;;;;44.30;18.88;;;10.40;83.10;;;;;;9179274;19;20022;-66
2024/03/12 14:58:34;;;;;;;39.70;19.48;;;10.40;83.00;;;;;;9177204;19;20063;-66
2024/03/12 15:01:44;;;;;;;38.25;17.35;;;10.40;83.00;;;;;;9176704;19;20018;-66
2024/03/12 15:04:52;;;;;;;37.65;18.67;;;10.40;82.90;;;;;;9175272;19;20022;-67
2024/03/12 15:08:00;;;;;;;43.00;19.58;;;10.50;82.90;;;;;;9175731;19;20018;-68
2024/03/12 15:11:05;;;;;;;42.80;18.50;;;10.50;82.80;;;;;;9175549;19;21970;-67
2024/03/12 15:14:15;;;;;;;39.33;18.10;;;10.40;82.70;;;;;;9177316;19;20018;-68
2024/03/12 15:17:26;;;;;;;45.22;18.67;;;10.50;82.80;;;;;;9177177;19;20029;-66
2024/03/12 15:20:33;;;;;;;40.22;18.27;;;10.50;82.80;;;;;;9180099;19;20017;-66
2024/03/12 15:23:39;;;;;;;38.13;18.77;;;10.50;82.70;;;;;;9177357;19;20011;-67
2024/03/12 15:26:48;;;;;;;36.08;17.42;;;10.50;82.70;;;;;;9176909;19;20015;-67
2024/03/12 15:29:54;;;;;;;39.00;18.35;;;10.50;82.60;;;;;;9176946;19;20472;-66
2024/03/12 15:33:06;;;;;;;36.97;17.90;;;10.50;82.60;;;;;;9177021;19;20480;-67
2024/03/12 15:36:12;;;;;;;37.95;18.30;;;10.50;82.60;;;;;;9175178;19;20011;-67
2024/03/12 15:39:20;;;;;;;35.65;18.65;;;10.50;82.50;;;;;;9173871;19;20025;-66
2024/03/12 15:42:27;;;;;;;39.75;19.23;;;10.50;82.40;;;;;;9175533;19;20018;-67
2024/03/12 15:45:34;;;;;;;54.83;20.55;;;10.50;82.40;;;;;;9175915;19;20447;-67
2024/03/12 15:48:42;;;;;;;44.45;21.60;;;10.50;82.40;;;;;;9177579;19;20022;-68
2024/03/12 15:51:50;;;;;;;45.42;21.73;;;10.40;82.40;;;;;;9176673;19;20813;-68
2024/03/12 15:54:56;;;;;;;46.88;21.33;;;10.40;82.40;;;;;;9174410;19;20025;-68
2024/03/12 15:58:03;;;;;;;50.00;22.77;;;10.40;82.30;;;;;;9171803;19;20014;-68
2024/03/12 16:01:09;;;;;;;47.95;22.83;;;10.40;82.30;;;;;;9173066;19;20479;-66
2024/03/12 16:04:20;;;;;;;50.85;23.35;;;10.40;82.30;;;;;;9175606;19;20356;-68
2024/03/12 16:07:25;;;;;;;48.05;22.52;;;10.40;82.90;;;;;;9177348;19;20043;-68
2024/03/12 16:10:33;;;;;;;50.30;22.50;;;10.40;82.30;;;;;;9170965;19;20433;-68
2024/03/12 16:13:39;;;;;;;51.80;23.20;;;10.40;82.30;;;;;;9172411;19;20026;-67